sensor_id;sensor_type;location;lat;lon;timestamp;temperature;humidity
65766;SHT31;52915;53.718;19.946;2022-11-30T00:02:05;1.54;80.75
65766;SHT31;52915;53.718;19.946;2022-11-30T00:07:08;1.46;81.00
65766;SHT31;52915;53.718;19.946;2022-11-30T00:12:11;1.45;81.19
65766;SHT31;52915;53.718;19.946;2022-11-30T00:17:14;1.46;81.31
65766;SHT31;52915;53.718;19.946;2022-11-30T00:22:16;1.46;81.31
65766;SHT31;52915;53.718;19.946;2022-11-30T00:27:19;1.51;81.25
65766;SHT31;52915;53.718;19.946;2022-11-30T00:32:22;1.51;81.33
65766;SHT31;52915;53.718;19.946;2022-11-30T00:37:27;1.52;81.39
65766;SHT31;52915;53.718;19.946;2022-11-30T00:42:29;1.45;81.60
65766;SHT31;52915;53.718;19.946;2022-11-30T00:47:32;1.41;81.86
65766;SHT31;52915;53.718;19.946;2022-11-30T00:52:34;1.48;81.82
65766;SHT31;52915;53.718;19.946;2022-11-30T00:57:37;1.43;81.81
65766;SHT31;52915;53.718;19.946;2022-11-30T01:02:39;1.32;82.17
65766;SHT31;52915;53.718;19.946;2022-11-30T01:07:43;1.38;82.11
65766;SHT31;52915;53.718;19.946;2022-11-30T01:12:46;1.38;81.99
65766;SHT31;52915;53.718;19.946;2022-11-30T01:17:48;1.37;82.10
65766;SHT31;52915;53.718;19.946;2022-11-30T01:22:51;1.35;82.04
65766;SHT31;52915;53.718;19.946;2022-11-30T01:27:55;1.35;82.06
65766;SHT31;52915;53.718;19.946;2022-11-30T01:33:02;1.36;82.00
65766;SHT31;52915;53.718;19.946;2022-11-30T01:38:05;1.39;81.99
65766;SHT31;52915;53.718;19.946;2022-11-30T01:43:11;1.43;82.04
65766;SHT31;52915;53.718;19.946;2022-11-30T01:48:14;1.42;81.97
65766;SHT31;52915;53.718;19.946;2022-11-30T01:53:17;1.42;81.93
65766;SHT31;52915;53.718;19.946;2022-11-30T01:58:23;1.41;81.93
65766;SHT31;52915;53.718;19.946;2022-11-30T02:03:31;1.42;81.76
65766;SHT31;52915;53.718;19.946;2022-11-30T02:08:44;1.38;81.92
65766;SHT31;52915;53.718;19.946;2022-11-30T02:14:22;1.45;81.91
65766;SHT31;52915;53.718;19.946;2022-11-30T02:25:09;1.49;81.67
65766;SHT31;52915;53.718;19.946;2022-11-30T02:30:26;1.45;81.50
65766;SHT31;52915;53.718;19.946;2022-11-30T02:35:33;1.40;81.41
65766;SHT31;52915;53.718;19.946;2022-11-30T02:40:40;1.39;81.54
65766;SHT31;52915;53.718;19.946;2022-11-30T02:45:47;1.42;81.50
65766;SHT31;52915;53.718;19.946;2022-11-30T02:51:03;1.41;81.58
65766;SHT31;52915;53.718;19.946;2022-11-30T02:56:10;1.30;81.58
65766;SHT31;52915;53.718;19.946;2022-11-30T03:01:14;1.25;81.71
65766;SHT31;52915;53.718;19.946;2022-11-30T03:06:16;1.22;81.65
65766;SHT31;52915;53.718;19.946;2022-11-30T03:11:19;1.22;81.48
65766;SHT31;52915;53.718;19.946;2022-11-30T03:16:22;1.27;81.54
65766;SHT31;52915;53.718;19.946;2022-11-30T03:21:25;1.30;81.67
65766;SHT31;52915;53.718;19.946;2022-11-30T03:26:27;1.29;81.96
65766;SHT31;52915;53.718;19.946;2022-11-30T03:31:30;1.27;82.09
65766;SHT31;52915;53.718;19.946;2022-11-30T03:36:33;1.32;82.15
65766;SHT31;52915;53.718;19.946;2022-11-30T03:41:36;1.38;81.97
65766;SHT31;52915;53.718;19.946;2022-11-30T03:46:39;1.30;81.54
65766;SHT31;52915;53.718;19.946;2022-11-30T03:51:42;1.24;81.39
65766;SHT31;52915;53.718;19.946;2022-11-30T03:56:45;1.20;81.26
65766;SHT31;52915;53.718;19.946;2022-11-30T04:01:48;1.17;81.53
65766;SHT31;52915;53.718;19.946;2022-11-30T04:06:50;1.22;81.56
65766;SHT31;52915;53.718;19.946;2022-11-30T04:11:53;1.21;81.42
65766;SHT31;52915;53.718;19.946;2022-11-30T04:16:56;1.24;81.32
65766;SHT31;52915;53.718;19.946;2022-11-30T04:21:58;1.25;81.29
65766;SHT31;52915;53.718;19.946;2022-11-30T04:27:01;1.23;81.36
65766;SHT31;52915;53.718;19.946;2022-11-30T04:32:04;1.22;81.43
65766;SHT31;52915;53.718;19.946;2022-11-30T04:37:06;1.19;81.59
65766;SHT31;52915;53.718;19.946;2022-11-30T04:42:09;1.22;81.56
65766;SHT31;52915;53.718;19.946;2022-11-30T04:47:11;1.22;81.49
65766;SHT31;52915;53.718;19.946;2022-11-30T04:52:14;1.22;81.42
65766;SHT31;52915;53.718;19.946;2022-11-30T04:57:17;1.21;81.49
65766;SHT31;52915;53.718;19.946;2022-11-30T05:02:20;1.22;81.51
65766;SHT31;52915;53.718;19.946;2022-11-30T05:07:23;1.22;81.48
65766;SHT31;52915;53.718;19.946;2022-11-30T05:12:26;1.24;81.59
65766;SHT31;52915;53.718;19.946;2022-11-30T05:17:29;1.27;81.70
65766;SHT31;52915;53.718;19.946;2022-11-30T05:22:31;1.26;81.57
65766;SHT31;52915;53.718;19.946;2022-11-30T05:27:36;1.29;81.75
65766;SHT31;52915;53.718;19.946;2022-11-30T05:32:39;1.36;81.79
65766;SHT31;52915;53.718;19.946;2022-11-30T05:37:41;1.39;81.69
65766;SHT31;52915;53.718;19.946;2022-11-30T05:42:44;1.36;81.61
65766;SHT31;52915;53.718;19.946;2022-11-30T05:47:47;1.39;81.54
65766;SHT31;52915;53.718;19.946;2022-11-30T05:52:53;1.34;81.68
65766;SHT31;52915;53.718;19.946;2022-11-30T05:57:57;1.30;81.72
65766;SHT31;52915;53.718;19.946;2022-11-30T06:03:00;1.30;81.71
65766;SHT31;52915;53.718;19.946;2022-11-30T06:08:03;1.40;81.74
65766;SHT31;52915;53.718;19.946;2022-11-30T06:13:06;1.39;81.64
65766;SHT31;52915;53.718;19.946;2022-11-30T06:18:11;1.36;81.73
65766;SHT31;52915;53.718;19.946;2022-11-30T06:23:14;1.34;81.89
65766;SHT31;52915;53.718;19.946;2022-11-30T06:28:16;1.38;81.87
65766;SHT31;52915;53.718;19.946;2022-11-30T06:33:22;1.47;81.86
65766;SHT31;52915;53.718;19.946;2022-11-30T06:38:25;1.45;81.76
65766;SHT31;52915;53.718;19.946;2022-11-30T06:43:31;1.39;81.84
65766;SHT31;52915;53.718;19.946;2022-11-30T06:48:38;1.38;81.96
65766;SHT31;52915;53.718;19.946;2022-11-30T06:53:41;1.41;81.98
65766;SHT31;52915;53.718;19.946;2022-11-30T06:58:47;1.42;82.00
65766;SHT31;52915;53.718;19.946;2022-11-30T07:03:51;1.42;82.03
65766;SHT31;52915;53.718;19.946;2022-11-30T07:08:54;1.47;82.08
65766;SHT31;52915;53.718;19.946;2022-11-30T07:13:56;1.56;81.93
65766;SHT31;52915;53.718;19.946;2022-11-30T07:18:59;1.57;81.74
65766;SHT31;52915;53.718;19.946;2022-11-30T07:24:02;1.51;81.86
65766;SHT31;52915;53.718;19.946;2022-11-30T07:29:24;1.52;81.90
65766;SHT31;52915;53.718;19.946;2022-11-30T07:34:26;1.57;81.79
65766;SHT31;52915;53.718;19.946;2022-11-30T07:39:29;1.56;81.72
65766;SHT31;52915;53.718;19.946;2022-11-30T07:44:33;1.53;81.76
65766;SHT31;52915;53.718;19.946;2022-11-30T07:49:36;1.60;81.62
65766;SHT31;52915;53.718;19.946;2022-11-30T07:54:40;1.60;81.48
65766;SHT31;52915;53.718;19.946;2022-11-30T07:59:43;1.58;81.47
65766;SHT31;52915;53.718;19.946;2022-11-30T08:04:46;1.61;81.39
65766;SHT31;52915;53.718;19.946;2022-11-30T08:09:51;1.63;81.39
65766;SHT31;52915;53.718;19.946;2022-11-30T08:14:54;1.67;81.52
65766;SHT31;52915;53.718;19.946;2022-11-30T08:20:17;1.66;81.36
65766;SHT31;52915;53.718;19.946;2022-11-30T08:25:19;1.74;81.42
65766;SHT31;52915;53.718;19.946;2022-11-30T08:30:22;1.76;80.81
65766;SHT31;52915;53.718;19.946;2022-11-30T08:35:32;1.73;80.65
65766;SHT31;52915;53.718;19.946;2022-11-30T08:40:35;1.75;80.79
65766;SHT31;52915;53.718;19.946;2022-11-30T08:45:37;1.69;81.09
65766;SHT31;52915;53.718;19.946;2022-11-30T08:50:40;1.68;81.26
65766;SHT31;52915;53.718;19.946;2022-11-30T08:55:45;1.68;81.21
65766;SHT31;52915;53.718;19.946;2022-11-30T09:06:16;1.68;81.04
65766;SHT31;52915;53.718;19.946;2022-11-30T09:11:29;1.72;81.00
65766;SHT31;52915;53.718;19.946;2022-11-30T09:16:34;1.70;81.04
65766;SHT31;52915;53.718;19.946;2022-11-30T09:21:37;1.71;81.18
65766;SHT31;52915;53.718;19.946;2022-11-30T09:26:40;1.68;80.99
65766;SHT31;52915;53.718;19.946;2022-11-30T09:31:43;1.68;81.08
65766;SHT31;52915;53.718;19.946;2022-11-30T09:36:45;1.66;81.22
65766;SHT31;52915;53.718;19.946;2022-11-30T09:53:20;1.59;81.19
65766;SHT31;52915;53.718;19.946;2022-11-30T09:58:43;1.60;81.54
65766;SHT31;52915;53.718;19.946;2022-11-30T10:03:53;1.62;81.40
65766;SHT31;52915;53.718;19.946;2022-11-30T10:31:09;1.49;81.98
65766;SHT31;52915;53.718;19.946;2022-11-30T10:41:35;1.48;82.19
65766;SHT31;52915;53.718;19.946;2022-11-30T10:52:34;1.54;82.20
65766;SHT31;52915;53.718;19.946;2022-11-30T10:57:53;1.58;82.20
65766;SHT31;52915;53.718;19.946;2022-11-30T11:03:01;1.62;82.05
65766;SHT31;52915;53.718;19.946;2022-11-30T11:08:24;1.57;82.06
65766;SHT31;52915;53.718;19.946;2022-11-30T11:13:36;1.61;82.14
65766;SHT31;52915;53.718;19.946;2022-11-30T11:18:53;1.61;82.11
65766;SHT31;52915;53.718;19.946;2022-11-30T11:23:59;1.50;82.24
65766;SHT31;52915;53.718;19.946;2022-11-30T11:29:11;1.49;82.21
65766;SHT31;52915;53.718;19.946;2022-11-30T11:34:33;1.46;82.28
65766;SHT31;52915;53.718;19.946;2022-11-30T11:39:37;1.40;82.40
65766;SHT31;52915;53.718;19.946;2022-11-30T11:44:40;1.43;81.99
65766;SHT31;52915;53.718;19.946;2022-11-30T11:49:43;1.38;81.90
65766;SHT31;52915;53.718;19.946;2022-11-30T11:54:54;1.35;82.07
65766;SHT31;52915;53.718;19.946;2022-11-30T12:00:06;1.33;82.32
65766;SHT31;52915;53.718;19.946;2022-11-30T12:05:21;1.31;82.14
65766;SHT31;52915;53.718;19.946;2022-11-30T12:15:59;1.36;81.83
65766;SHT31;52915;53.718;19.946;2022-11-30T12:21:13;1.38;81.65
65766;SHT31;52915;53.718;19.946;2022-11-30T12:26:48;1.42;81.57
65766;SHT31;52915;53.718;19.946;2022-11-30T12:37:41;1.51;81.57
65766;SHT31;52915;53.718;19.946;2022-11-30T12:48:46;1.69;81.32
65766;SHT31;52915;53.718;19.946;2022-11-30T12:54:02;1.66;81.33
65766;SHT31;52915;53.718;19.946;2022-11-30T12:59:21;1.69;81.33
65766;SHT31;52915;53.718;19.946;2022-11-30T13:04:41;1.73;81.22
65766;SHT31;52915;53.718;19.946;2022-11-30T13:15:45;1.77;81.28
65766;SHT31;52915;53.718;19.946;2022-11-30T13:26:39;1.93;81.29
65766;SHT31;52915;53.718;19.946;2022-11-30T13:32:09;1.91;81.32
65766;SHT31;52915;53.718;19.946;2022-11-30T13:37:37;1.98;81.38
65766;SHT31;52915;53.718;19.946;2022-11-30T13:42:41;2.00;81.26
65766;SHT31;52915;53.718;19.946;2022-11-30T13:47:53;1.97;81.39
65766;SHT31;52915;53.718;19.946;2022-11-30T13:53:18;1.96;81.51
65766;SHT31;52915;53.718;19.946;2022-11-30T13:58:27;1.95;81.61
65766;SHT31;52915;53.718;19.946;2022-11-30T14:03:32;1.92;81.61
65766;SHT31;52915;53.718;19.946;2022-11-30T14:08:35;1.95;81.69
65766;SHT31;52915;53.718;19.946;2022-11-30T14:13:39;2.06;81.54
65766;SHT31;52915;53.718;19.946;2022-11-30T14:18:42;2.13;81.40
65766;SHT31;52915;53.718;19.946;2022-11-30T14:23:49;2.13;81.38
65766;SHT31;52915;53.718;19.946;2022-11-30T14:34:08;2.04;81.49
65766;SHT31;52915;53.718;19.946;2022-11-30T14:39:24;2.01;81.61
65766;SHT31;52915;53.718;19.946;2022-11-30T14:44:42;1.98;81.79
65766;SHT31;52915;53.718;19.946;2022-11-30T14:49:45;1.95;81.94
65766;SHT31;52915;53.718;19.946;2022-11-30T14:54:55;1.96;82.05
65766;SHT31;52915;53.718;19.946;2022-11-30T15:00:37;2.09;81.93
65766;SHT31;52915;53.718;19.946;2022-11-30T15:05:42;2.13;81.75
65766;SHT31;52915;53.718;19.946;2022-11-30T15:10:45;2.10;81.85
65766;SHT31;52915;53.718;19.946;2022-11-30T15:15:55;2.10;81.94
65766;SHT31;52915;53.718;19.946;2022-11-30T15:20:59;2.07;81.97
65766;SHT31;52915;53.718;19.946;2022-11-30T15:26:14;2.01;82.16
65766;SHT31;52915;53.718;19.946;2022-11-30T15:31:27;1.96;82.28
65766;SHT31;52915;53.718;19.946;2022-11-30T15:36:39;2.04;82.21
65766;SHT31;52915;53.718;19.946;2022-11-30T15:41:42;2.13;82.13
65766;SHT31;52915;53.718;19.946;2022-11-30T15:47:04;2.18;82.00
65766;SHT31;52915;53.718;19.946;2022-11-30T15:52:26;2.16;81.93
65766;SHT31;52915;53.718;19.946;2022-11-30T16:03:10;2.13;82.08
65766;SHT31;52915;53.718;19.946;2022-11-30T16:08:14;2.05;82.23
65766;SHT31;52915;53.718;19.946;2022-11-30T16:13:19;2.07;82.40
65766;SHT31;52915;53.718;19.946;2022-11-30T16:18:25;2.19;82.38
65766;SHT31;52915;53.718;19.946;2022-11-30T16:23:29;2.30;82.22
65766;SHT31;52915;53.718;19.946;2022-11-30T16:28:35;2.37;82.04
65766;SHT31;52915;53.718;19.946;2022-11-30T16:33:38;2.37;82.07
65766;SHT31;52915;53.718;19.946;2022-11-30T16:38:40;2.31;82.20
65766;SHT31;52915;53.718;19.946;2022-11-30T16:43:43;2.27;82.21
65766;SHT31;52915;53.718;19.946;2022-11-30T16:48:48;2.21;82.21
65766;SHT31;52915;53.718;19.946;2022-11-30T16:53:51;2.22;82.31
65766;SHT31;52915;53.718;19.946;2022-11-30T16:58:54;2.31;82.17
65766;SHT31;52915;53.718;19.946;2022-11-30T17:03:57;2.31;82.08
65766;SHT31;52915;53.718;19.946;2022-11-30T17:09:01;2.34;82.12
65766;SHT31;52915;53.718;19.946;2022-11-30T17:14:05;2.30;82.21
65766;SHT31;52915;53.718;19.946;2022-11-30T17:19:08;2.28;82.36
65766;SHT31;52915;53.718;19.946;2022-11-30T17:24:10;2.28;82.44
65766;SHT31;52915;53.718;19.946;2022-11-30T17:29:14;2.33;82.40
65766;SHT31;52915;53.718;19.946;2022-11-30T17:34:17;2.43;82.29
65766;SHT31;52915;53.718;19.946;2022-11-30T17:39:19;2.43;82.20
65766;SHT31;52915;53.718;19.946;2022-11-30T17:44:22;2.39;82.15
65766;SHT31;52915;53.718;19.946;2022-11-30T17:49:24;2.42;82.11
65766;SHT31;52915;53.718;19.946;2022-11-30T17:54:26;2.48;81.93
65766;SHT31;52915;53.718;19.946;2022-11-30T17:59:29;2.49;82.00
65766;SHT31;52915;53.718;19.946;2022-11-30T18:04:31;2.50;82.10
65766;SHT31;52915;53.718;19.946;2022-11-30T18:09:34;2.49;82.18
65766;SHT31;52915;53.718;19.946;2022-11-30T18:14:43;2.55;82.07
65766;SHT31;52915;53.718;19.946;2022-11-30T18:19:46;2.63;81.86
65766;SHT31;52915;53.718;19.946;2022-11-30T18:24:49;2.67;81.61
65766;SHT31;52915;53.718;19.946;2022-11-30T18:29:51;2.63;81.48
65766;SHT31;52915;53.718;19.946;2022-11-30T18:34:54;2.62;81.47
65766;SHT31;52915;53.718;19.946;2022-11-30T18:39:56;2.70;81.32
65766;SHT31;52915;53.718;19.946;2022-11-30T18:44:59;2.76;81.00
65766;SHT31;52915;53.718;19.946;2022-11-30T18:50:01;2.70;80.60
65766;SHT31;52915;53.718;19.946;2022-11-30T18:55:05;2.72;80.45
65766;SHT31;52915;53.718;19.946;2022-11-30T19:00:08;2.71;80.55
65766;SHT31;52915;53.718;19.946;2022-11-30T19:05:11;2.74;80.79
65766;SHT31;52915;53.718;19.946;2022-11-30T19:10:36;2.86;80.46
65766;SHT31;52915;53.718;19.946;2022-11-30T19:15:41;2.91;80.11
65766;SHT31;52915;53.718;19.946;2022-11-30T19:20:44;2.90;80.06
65766;SHT31;52915;53.718;19.946;2022-11-30T19:25:49;2.97;79.84
65766;SHT31;52915;53.718;19.946;2022-11-30T19:30:51;2.95;79.61
65766;SHT31;52915;53.718;19.946;2022-11-30T19:35:58;2.93;79.60
65766;SHT31;52915;53.718;19.946;2022-11-30T19:41:03;2.89;79.52
65766;SHT31;52915;53.718;19.946;2022-11-30T19:46:12;3.01;79.63
65766;SHT31;52915;53.718;19.946;2022-11-30T19:51:17;3.05;79.61
65766;SHT31;52915;53.718;19.946;2022-11-30T19:56:20;3.04;79.64
65766;SHT31;52915;53.718;19.946;2022-11-30T20:01:25;2.97;79.29
65766;SHT31;52915;53.718;19.946;2022-11-30T20:06:30;2.99;79.51
65766;SHT31;52915;53.718;19.946;2022-11-30T20:11:38;2.97;79.11
65766;SHT31;52915;53.718;19.946;2022-11-30T20:16:41;3.00;79.07
65766;SHT31;52915;53.718;19.946;2022-11-30T20:21:44;3.05;78.88
65766;SHT31;52915;53.718;19.946;2022-11-30T20:26:49;3.13;78.81
65766;SHT31;52915;53.718;19.946;2022-11-30T20:31:52;3.15;78.64
65766;SHT31;52915;53.718;19.946;2022-11-30T20:36:54;3.05;78.14
65766;SHT31;52915;53.718;19.946;2022-11-30T20:41:58;3.04;77.72
65766;SHT31;52915;53.718;19.946;2022-11-30T20:47:01;3.07;77.54
65766;SHT31;52915;53.718;19.946;2022-11-30T20:52:04;3.04;77.68
65766;SHT31;52915;53.718;19.946;2022-11-30T20:57:07;3.10;78.00
65766;SHT31;52915;53.718;19.946;2022-11-30T21:02:10;3.12;77.78
65766;SHT31;52915;53.718;19.946;2022-11-30T21:07:13;3.06;77.34
65766;SHT31;52915;53.718;19.946;2022-11-30T21:12:16;3.02;77.00
65766;SHT31;52915;53.718;19.946;2022-11-30T21:17:19;3.04;76.65
65766;SHT31;52915;53.718;19.946;2022-11-30T21:22:21;3.10;76.18
65766;SHT31;52915;53.718;19.946;2022-11-30T21:27:24;3.13;76.11
65766;SHT31;52915;53.718;19.946;2022-11-30T21:32:26;3.18;76.11
65766;SHT31;52915;53.718;19.946;2022-11-30T21:37:28;3.16;75.88
65766;SHT31;52915;53.718;19.946;2022-11-30T21:42:31;3.19;75.61
65766;SHT31;52915;53.718;19.946;2022-11-30T21:47:33;3.15;75.48
65766;SHT31;52915;53.718;19.946;2022-11-30T21:52:35;3.03;75.79
65766;SHT31;52915;53.718;19.946;2022-11-30T21:57:38;3.00;76.04
65766;SHT31;52915;53.718;19.946;2022-11-30T22:02:40;3.00;75.89
65766;SHT31;52915;53.718;19.946;2022-11-30T22:07:44;3.05;75.90
65766;SHT31;52915;53.718;19.946;2022-11-30T22:12:46;3.02;76.04
65766;SHT31;52915;53.718;19.946;2022-11-30T22:17:50;3.08;76.39
65766;SHT31;52915;53.718;19.946;2022-11-30T22:22:53;3.08;76.40
65766;SHT31;52915;53.718;19.946;2022-11-30T22:27:55;3.10;76.67
65766;SHT31;52915;53.718;19.946;2022-11-30T22:32:58;3.11;76.56
65766;SHT31;52915;53.718;19.946;2022-11-30T22:38:00;3.03;76.28
65766;SHT31;52915;53.718;19.946;2022-11-30T22:43:02;3.06;76.14
65766;SHT31;52915;53.718;19.946;2022-11-30T22:48:05;3.14;75.69
65766;SHT31;52915;53.718;19.946;2022-11-30T22:53:08;3.06;75.38
65766;SHT31;52915;53.718;19.946;2022-11-30T22:58:11;3.12;75.25
65766;SHT31;52915;53.718;19.946;2022-11-30T23:03:14;3.09;75.40
65766;SHT31;52915;53.718;19.946;2022-11-30T23:08:17;3.03;75.77
65766;SHT31;52915;53.718;19.946;2022-11-30T23:13:20;3.02;75.89
65766;SHT31;52915;53.718;19.946;2022-11-30T23:18:22;3.02;75.96
65766;SHT31;52915;53.718;19.946;2022-11-30T23:23:25;3.01;75.65
65766;SHT31;52915;53.718;19.946;2022-11-30T23:28:28;2.94;75.98
65766;SHT31;52915;53.718;19.946;2022-11-30T23:33:30;2.85;76.31
65766;SHT31;52915;53.718;19.946;2022-11-30T23:38:33;2.80;76.64
65766;SHT31;52915;53.718;19.946;2022-11-30T23:43:37;2.79;76.82
65766;SHT31;52915;53.718;19.946;2022-11-30T23:48:40;2.75;76.93
65766;SHT31;52915;53.718;19.946;2022-11-30T23:53:42;2.64;76.96
65766;SHT31;52915;53.718;19.946;2022-11-30T23:58:45;2.64;77.01
